sensor_id;sensor_type;location;lat;lon;timestamp;P1;durP1;ratioP1;P2;durP2;ratioP2
62687;SDS011;48752;51.056;17.056;2022-09-09T00:01:08;20.10;;;12.23;;
62687;SDS011;48752;51.056;17.056;2022-09-09T00:06:10;18.17;;;11.53;;
62687;SDS011;48752;51.056;17.056;2022-09-09T00:08:55;16.70;;;12.05;;
62687;SDS011;48752;51.056;17.056;2022-09-09T00:11:26;22.35;;;13.02;;
62687;SDS011;48752;51.056;17.056;2022-09-09T00:13:56;20.45;;;12.43;;
62687;SDS011;48752;51.056;17.056;2022-09-09T00:16:24;20.30;;;12.00;;
62687;SDS011;48752;51.056;17.056;2022-09-09T00:22:05;21.55;;;12.55;;
62687;SDS011;48752;51.056;17.056;2022-09-09T00:24:43;21.65;;;12.70;;
62687;SDS011;48752;51.056;17.056;2022-09-09T00:27:14;21.17;;;13.27;;
62687;SDS011;48752;51.056;17.056;2022-09-09T00:29:43;20.42;;;12.65;;
62687;SDS011;48752;51.056;17.056;2022-09-09T00:32:13;21.40;;;12.57;;
62687;SDS011;48752;51.056;17.056;2022-09-09T00:34:47;18.27;;;12.40;;
62687;SDS011;48752;51.056;17.056;2022-09-09T00:37:14;19.48;;;12.88;;
62687;SDS011;48752;51.056;17.056;2022-09-09T00:39:41;22.67;;;13.02;;
62687;SDS011;48752;51.056;17.056;2022-09-09T00:42:16;23.92;;;13.13;;
62687;SDS011;48752;51.056;17.056;2022-09-09T00:45:02;24.65;;;13.60;;
62687;SDS011;48752;51.056;17.056;2022-09-09T00:47:50;23.23;;;12.88;;
62687;SDS011;48752;51.056;17.056;2022-09-09T00:58:17;21.15;;;12.45;;
62687;SDS011;48752;51.056;17.056;2022-09-09T01:00:44;23.20;;;11.70;;
62687;SDS011;48752;51.056;17.056;2022-09-09T01:03:14;19.15;;;11.90;;
62687;SDS011;48752;51.056;17.056;2022-09-09T01:08:39;17.95;;;11.40;;
62687;SDS011;48752;51.056;17.056;2022-09-09T01:11:15;17.85;;;11.88;;
62687;SDS011;48752;51.056;17.056;2022-09-09T01:13:45;20.42;;;12.40;;
62687;SDS011;48752;51.056;17.056;2022-09-09T01:16:12;18.88;;;11.02;;
62687;SDS011;48752;51.056;17.056;2022-09-09T01:18:39;18.75;;;11.00;;
62687;SDS011;48752;51.056;17.056;2022-09-09T01:26:22;15.35;;;10.68;;
62687;SDS011;48752;51.056;17.056;2022-09-09T01:28:51;17.92;;;11.40;;
62687;SDS011;48752;51.056;17.056;2022-09-09T01:31:26;15.90;;;10.50;;
62687;SDS011;48752;51.056;17.056;2022-09-09T01:33:53;14.68;;;10.38;;
62687;SDS011;48752;51.056;17.056;2022-09-09T01:39:25;17.25;;;9.93;;
62687;SDS011;48752;51.056;17.056;2022-09-09T01:41:52;15.88;;;10.55;;
62687;SDS011;48752;51.056;17.056;2022-09-09T01:44:18;17.65;;;10.57;;
62687;SDS011;48752;51.056;17.056;2022-09-09T01:46:44;16.98;;;10.73;;
62687;SDS011;48752;51.056;17.056;2022-09-09T01:49:09;13.63;;;10.18;;
62687;SDS011;48752;51.056;17.056;2022-09-09T01:51:35;15.23;;;10.50;;
62687;SDS011;48752;51.056;17.056;2022-09-09T01:54:01;16.48;;;10.50;;
62687;SDS011;48752;51.056;17.056;2022-09-09T02:02:52;15.60;;;10.27;;
62687;SDS011;48752;51.056;17.056;2022-09-09T02:05:30;17.00;;;10.68;;
62687;SDS011;48752;51.056;17.056;2022-09-09T02:08:03;15.00;;;10.57;;
62687;SDS011;48752;51.056;17.056;2022-09-09T02:13:11;16.88;;;10.98;;
62687;SDS011;48752;51.056;17.056;2022-09-09T02:19:01;15.07;;;10.30;;
62687;SDS011;48752;51.056;17.056;2022-09-09T02:21:38;18.02;;;10.35;;
62687;SDS011;48752;51.056;17.056;2022-09-09T02:24:05;20.02;;;11.00;;
62687;SDS011;48752;51.056;17.056;2022-09-09T02:26:35;15.45;;;10.82;;
62687;SDS011;48752;51.056;17.056;2022-09-09T02:29:03;16.15;;;10.73;;
62687;SDS011;48752;51.056;17.056;2022-09-09T02:31:30;15.55;;;10.50;;
62687;SDS011;48752;51.056;17.056;2022-09-09T02:33:57;15.70;;;10.63;;
62687;SDS011;48752;51.056;17.056;2022-09-09T02:36:25;18.92;;;11.48;;
62687;SDS011;48752;51.056;17.056;2022-09-09T02:38:54;17.00;;;11.52;;
62687;SDS011;48752;51.056;17.056;2022-09-09T02:41:20;19.02;;;11.60;;
62687;SDS011;48752;51.056;17.056;2022-09-09T02:43:51;20.38;;;12.38;;
62687;SDS011;48752;51.056;17.056;2022-09-09T02:47:21;17.73;;;10.88;;
62687;SDS011;48752;51.056;17.056;2022-09-09T02:52:02;19.08;;;12.82;;
62687;SDS011;48752;51.056;17.056;2022-09-09T02:57:01;18.05;;;13.43;;
62687;SDS011;48752;51.056;17.056;2022-09-09T02:59:30;19.05;;;12.23;;
62687;SDS011;48752;51.056;17.056;2022-09-09T03:01:55;19.27;;;12.32;;
62687;SDS011;48752;51.056;17.056;2022-09-09T03:04:21;20.38;;;13.88;;
62687;SDS011;48752;51.056;17.056;2022-09-09T03:06:46;18.95;;;12.77;;
62687;SDS011;48752;51.056;17.056;2022-09-09T03:09:12;18.17;;;13.00;;
62687;SDS011;48752;51.056;17.056;2022-09-09T03:11:37;19.10;;;13.02;;
62687;SDS011;48752;51.056;17.056;2022-09-09T03:14:03;17.15;;;11.98;;
62687;SDS011;48752;51.056;17.056;2022-09-09T03:16:29;19.52;;;11.85;;
62687;SDS011;48752;51.056;17.056;2022-09-09T03:18:54;23.20;;;12.85;;
62687;SDS011;48752;51.056;17.056;2022-09-09T03:21:20;16.73;;;12.10;;
62687;SDS011;48752;51.056;17.056;2022-09-09T03:23:45;19.15;;;12.07;;
62687;SDS011;48752;51.056;17.056;2022-09-09T03:26:12;19.75;;;12.02;;
62687;SDS011;48752;51.056;17.056;2022-09-09T03:28:40;18.13;;;12.35;;
62687;SDS011;48752;51.056;17.056;2022-09-09T03:31:06;18.42;;;12.93;;
62687;SDS011;48752;51.056;17.056;2022-09-09T03:33:36;16.13;;;11.25;;
62687;SDS011;48752;51.056;17.056;2022-09-09T03:36:04;17.27;;;12.45;;
62687;SDS011;48752;51.056;17.056;2022-09-09T03:38:30;15.05;;;11.20;;
62687;SDS011;48752;51.056;17.056;2022-09-09T03:40:57;16.05;;;11.63;;
62687;SDS011;48752;51.056;17.056;2022-09-09T03:43:23;17.92;;;12.05;;
62687;SDS011;48752;51.056;17.056;2022-09-09T03:45:49;19.83;;;11.73;;
62687;SDS011;48752;51.056;17.056;2022-09-09T03:48:16;18.55;;;13.13;;
62687;SDS011;48752;51.056;17.056;2022-09-09T03:50:48;17.40;;;12.98;;
62687;SDS011;48752;51.056;17.056;2022-09-09T03:53:15;19.25;;;12.77;;
62687;SDS011;48752;51.056;17.056;2022-09-09T03:55:44;16.67;;;11.55;;
62687;SDS011;48752;51.056;17.056;2022-09-09T03:58:15;22.90;;;12.88;;
62687;SDS011;48752;51.056;17.056;2022-09-09T04:00:41;17.45;;;12.40;;
62687;SDS011;48752;51.056;17.056;2022-09-09T04:03:11;17.13;;;11.88;;
62687;SDS011;48752;51.056;17.056;2022-09-09T04:05:36;17.27;;;12.75;;
62687;SDS011;48752;51.056;17.056;2022-09-09T04:08:05;20.05;;;12.95;;
62687;SDS011;48752;51.056;17.056;2022-09-09T04:10:31;17.48;;;13.05;;
62687;SDS011;48752;51.056;17.056;2022-09-09T04:12:57;17.73;;;12.02;;
62687;SDS011;48752;51.056;17.056;2022-09-09T04:15:22;17.58;;;11.95;;
62687;SDS011;48752;51.056;17.056;2022-09-09T04:17:47;15.90;;;12.43;;
62687;SDS011;48752;51.056;17.056;2022-09-09T04:20:13;21.30;;;12.50;;
62687;SDS011;48752;51.056;17.056;2022-09-09T04:22:38;18.73;;;13.32;;
62687;SDS011;48752;51.056;17.056;2022-09-09T04:25:04;17.45;;;12.63;;
62687;SDS011;48752;51.056;17.056;2022-09-09T04:27:31;19.17;;;12.88;;
62687;SDS011;48752;51.056;17.056;2022-09-09T04:29:56;21.25;;;13.25;;
62687;SDS011;48752;51.056;17.056;2022-09-09T04:32:22;15.73;;;11.70;;
62687;SDS011;48752;51.056;17.056;2022-09-09T04:34:48;17.05;;;11.48;;
62687;SDS011;48752;51.056;17.056;2022-09-09T04:37:13;16.90;;;11.52;;
62687;SDS011;48752;51.056;17.056;2022-09-09T04:39:39;23.20;;;12.30;;
62687;SDS011;48752;51.056;17.056;2022-09-09T04:42:04;18.88;;;12.35;;
62687;SDS011;48752;51.056;17.056;2022-09-09T04:44:30;17.73;;;11.40;;
62687;SDS011;48752;51.056;17.056;2022-09-09T04:46:55;17.52;;;12.90;;
62687;SDS011;48752;51.056;17.056;2022-09-09T04:49:22;17.05;;;11.75;;
62687;SDS011;48752;51.056;17.056;2022-09-09T04:51:52;18.05;;;13.57;;
62687;SDS011;48752;51.056;17.056;2022-09-09T04:54:17;22.63;;;13.20;;
62687;SDS011;48752;51.056;17.056;2022-09-09T04:56:45;17.00;;;12.07;;
62687;SDS011;48752;51.056;17.056;2022-09-09T04:59:10;16.10;;;12.02;;
62687;SDS011;48752;51.056;17.056;2022-09-09T05:01:37;16.48;;;11.27;;
62687;SDS011;48752;51.056;17.056;2022-09-09T05:04:04;17.83;;;12.02;;
62687;SDS011;48752;51.056;17.056;2022-09-09T05:06:31;17.95;;;11.50;;
62687;SDS011;48752;51.056;17.056;2022-09-09T05:08:57;16.45;;;10.98;;
62687;SDS011;48752;51.056;17.056;2022-09-09T05:11:27;16.90;;;10.57;;
62687;SDS011;48752;51.056;17.056;2022-09-09T05:13:56;14.95;;;11.13;;
62687;SDS011;48752;51.056;17.056;2022-09-09T05:16:23;12.23;;;10.32;;
62687;SDS011;48752;51.056;17.056;2022-09-09T05:18:50;26.65;;;12.48;;
62687;SDS011;48752;51.056;17.056;2022-09-09T05:21:20;22.85;;;11.73;;
62687;SDS011;48752;51.056;17.056;2022-09-09T05:23:49;59.42;;;16.02;;
62687;SDS011;48752;51.056;17.056;2022-09-09T05:28:46;22.23;;;10.45;;
62687;SDS011;48752;51.056;17.056;2022-09-09T05:31:19;19.90;;;10.95;;
62687;SDS011;48752;51.056;17.056;2022-09-09T05:33:46;16.20;;;10.15;;
62687;SDS011;48752;51.056;17.056;2022-09-09T05:36:15;14.27;;;9.50;;
62687;SDS011;48752;51.056;17.056;2022-09-09T05:38:45;11.80;;;9.30;;
62687;SDS011;48752;51.056;17.056;2022-09-09T05:41:11;11.00;;;8.70;;
62687;SDS011;48752;51.056;17.056;2022-09-09T05:43:37;11.20;;;9.63;;
62687;SDS011;48752;51.056;17.056;2022-09-09T05:46:07;10.73;;;8.48;;
62687;SDS011;48752;51.056;17.056;2022-09-09T05:48:34;11.45;;;8.55;;
62687;SDS011;48752;51.056;17.056;2022-09-09T05:51:00;10.02;;;8.00;;
62687;SDS011;48752;51.056;17.056;2022-09-09T05:53:27;12.85;;;7.78;;
62687;SDS011;48752;51.056;17.056;2022-09-09T05:56:00;21.90;;;9.20;;
62687;SDS011;48752;51.056;17.056;2022-09-09T05:58:28;17.75;;;9.02;;
62687;SDS011;48752;51.056;17.056;2022-09-09T06:01:06;37.47;;;11.25;;
62687;SDS011;48752;51.056;17.056;2022-09-09T06:03:35;41.28;;;12.55;;
62687;SDS011;48752;51.056;17.056;2022-09-09T06:06:05;69.35;;;15.20;;
62687;SDS011;48752;51.056;17.056;2022-09-09T06:08:36;52.65;;;12.55;;
62687;SDS011;48752;51.056;17.056;2022-09-09T06:11:08;17.45;;;7.50;;
62687;SDS011;48752;51.056;17.056;2022-09-09T06:13:35;34.72;;;8.98;;
62687;SDS011;48752;51.056;17.056;2022-09-09T06:16:04;17.27;;;7.20;;
62687;SDS011;48752;51.056;17.056;2022-09-09T06:18:32;15.43;;;3.90;;
62687;SDS011;48752;51.056;17.056;2022-09-09T06:20:58;8.82;;;4.60;;
62687;SDS011;48752;51.056;17.056;2022-09-09T06:23:25;14.25;;;4.55;;
62687;SDS011;48752;51.056;17.056;2022-09-09T06:25:52;24.63;;;4.85;;
62687;SDS011;48752;51.056;17.056;2022-09-09T06:28:30;20.40;;;4.68;;
62687;SDS011;48752;51.056;17.056;2022-09-09T06:30:57;6.80;;;3.20;;
62687;SDS011;48752;51.056;17.056;2022-09-09T06:33:23;7.63;;;2.78;;
62687;SDS011;48752;51.056;17.056;2022-09-09T06:35:52;4.88;;;2.38;;
62687;SDS011;48752;51.056;17.056;2022-09-09T06:38:18;5.50;;;2.50;;
62687;SDS011;48752;51.056;17.056;2022-09-09T06:40:50;3.70;;;2.13;;
62687;SDS011;48752;51.056;17.056;2022-09-09T06:43:20;3.58;;;1.90;;
62687;SDS011;48752;51.056;17.056;2022-09-09T06:46:03;7.93;;;2.40;;
62687;SDS011;48752;51.056;17.056;2022-09-09T06:48:33;3.65;;;1.67;;
62687;SDS011;48752;51.056;17.056;2022-09-09T06:53:34;1.88;;;1.20;;
62687;SDS011;48752;51.056;17.056;2022-09-09T06:56:00;6.35;;;1.73;;
62687;SDS011;48752;51.056;17.056;2022-09-09T06:58:48;4.35;;;1.38;;
62687;SDS011;48752;51.056;17.056;2022-09-09T07:01:15;2.38;;;1.42;;
62687;SDS011;48752;51.056;17.056;2022-09-09T07:03:42;6.40;;;2.17;;
62687;SDS011;48752;51.056;17.056;2022-09-09T07:06:20;2.75;;;1.40;;
62687;SDS011;48752;51.056;17.056;2022-09-09T07:08:59;3.17;;;1.20;;
62687;SDS011;48752;51.056;17.056;2022-09-09T07:11:30;4.97;;;1.33;;
62687;SDS011;48752;51.056;17.056;2022-09-09T07:13:58;1.88;;;1.38;;
62687;SDS011;48752;51.056;17.056;2022-09-09T07:16:24;5.00;;;1.50;;
62687;SDS011;48752;51.056;17.056;2022-09-09T07:18:49;3.15;;;1.38;;
62687;SDS011;48752;51.056;17.056;2022-09-09T07:21:15;2.05;;;1.27;;
62687;SDS011;48752;51.056;17.056;2022-09-09T07:23:41;3.10;;;1.50;;
62687;SDS011;48752;51.056;17.056;2022-09-09T07:26:07;2.95;;;1.10;;
62687;SDS011;48752;51.056;17.056;2022-09-09T07:28:37;4.63;;;2.10;;
62687;SDS011;48752;51.056;17.056;2022-09-09T07:31:03;1.63;;;1.08;;
62687;SDS011;48752;51.056;17.056;2022-09-09T07:33:29;3.58;;;1.42;;
62687;SDS011;48752;51.056;17.056;2022-09-09T07:36:01;2.00;;;1.60;;
62687;SDS011;48752;51.056;17.056;2022-09-09T07:38:42;3.47;;;1.20;;
62687;SDS011;48752;51.056;17.056;2022-09-09T07:41:19;4.80;;;1.30;;
62687;SDS011;48752;51.056;17.056;2022-09-09T07:43:52;9.37;;;2.70;;
62687;SDS011;48752;51.056;17.056;2022-09-09T07:46:21;21.95;;;5.20;;
62687;SDS011;48752;51.056;17.056;2022-09-09T07:48:49;34.20;;;5.40;;
62687;SDS011;48752;51.056;17.056;2022-09-09T07:51:16;9.23;;;3.22;;
62687;SDS011;48752;51.056;17.056;2022-09-09T07:53:44;190.98;;;24.30;;
62687;SDS011;48752;51.056;17.056;2022-09-09T07:56:11;4.30;;;1.80;;
62687;SDS011;48752;51.056;17.056;2022-09-09T07:58:38;5.00;;;1.17;;
62687;SDS011;48752;51.056;17.056;2022-09-09T08:03:34;2.03;;;1.20;;
62687;SDS011;48752;51.056;17.056;2022-09-09T08:06:00;1.35;;;1.25;;
62687;SDS011;48752;51.056;17.056;2022-09-09T08:08:27;1.38;;;1.10;;
62687;SDS011;48752;51.056;17.056;2022-09-09T08:10:53;1.67;;;1.30;;
62687;SDS011;48752;51.056;17.056;2022-09-09T08:13:18;1.83;;;1.37;;
62687;SDS011;48752;51.056;17.056;2022-09-09T08:15:44;2.42;;;1.40;;
62687;SDS011;48752;51.056;17.056;2022-09-09T08:18:09;3.65;;;1.17;;
62687;SDS011;48752;51.056;17.056;2022-09-09T08:20:35;5.60;;;1.27;;
62687;SDS011;48752;51.056;17.056;2022-09-09T08:23:01;2.00;;;1.40;;
62687;SDS011;48752;51.056;17.056;2022-09-09T08:25:27;1.75;;;1.15;;
62687;SDS011;48752;51.056;17.056;2022-09-09T08:27:53;1.80;;;1.38;;
62687;SDS011;48752;51.056;17.056;2022-09-09T08:30:18;2.50;;;1.10;;
62687;SDS011;48752;51.056;17.056;2022-09-09T08:32:44;1.40;;;0.90;;
62687;SDS011;48752;51.056;17.056;2022-09-09T08:35:09;2.53;;;1.30;;
62687;SDS011;48752;51.056;17.056;2022-09-09T08:37:34;2.50;;;1.48;;
62687;SDS011;48752;51.056;17.056;2022-09-09T08:40:00;1.17;;;0.98;;
62687;SDS011;48752;51.056;17.056;2022-09-09T08:42:30;3.13;;;1.38;;
62687;SDS011;48752;51.056;17.056;2022-09-09T08:50:29;4.95;;;2.25;;
62687;SDS011;48752;51.056;17.056;2022-09-09T08:55:47;18.85;;;3.40;;
62687;SDS011;48752;51.056;17.056;2022-09-09T09:03:59;7.50;;;1.83;;
62687;SDS011;48752;51.056;17.056;2022-09-09T09:06:31;15.95;;;2.65;;
62687;SDS011;48752;51.056;17.056;2022-09-09T09:11:50;29.40;;;3.55;;
62687;SDS011;48752;51.056;17.056;2022-09-09T09:14:22;51.42;;;6.80;;
62687;SDS011;48752;51.056;17.056;2022-09-09T09:16:58;104.10;;;16.25;;
62687;SDS011;48752;51.056;17.056;2022-09-09T09:19:26;64.05;;;7.93;;
62687;SDS011;48752;51.056;17.056;2022-09-09T09:27:14;89.50;;;12.90;;
62687;SDS011;48752;51.056;17.056;2022-09-09T09:29:41;22.23;;;4.53;;
62687;SDS011;48752;51.056;17.056;2022-09-09T09:32:09;13.75;;;3.13;;
62687;SDS011;48752;51.056;17.056;2022-09-09T09:34:38;20.55;;;3.50;;
62687;SDS011;48752;51.056;17.056;2022-09-09T09:37:07;3.92;;;1.33;;
62687;SDS011;48752;51.056;17.056;2022-09-09T09:39:37;2.35;;;1.10;;
62687;SDS011;48752;51.056;17.056;2022-09-09T09:42:09;7.57;;;1.88;;
62687;SDS011;48752;51.056;17.056;2022-09-09T09:44:39;2.13;;;1.77;;
62687;SDS011;48752;51.056;17.056;2022-09-09T09:47:06;20.25;;;3.05;;
62687;SDS011;48752;51.056;17.056;2022-09-09T09:49:55;121.57;;;20.23;;
62687;SDS011;48752;51.056;17.056;2022-09-09T09:52:28;3.08;;;1.20;;
62687;SDS011;48752;51.056;17.056;2022-09-09T09:54:55;6.00;;;2.00;;
62687;SDS011;48752;51.056;17.056;2022-09-09T09:57:28;6.30;;;1.75;;
62687;SDS011;48752;51.056;17.056;2022-09-09T10:02:44;3.97;;;1.30;;
62687;SDS011;48752;51.056;17.056;2022-09-09T10:05:30;2.33;;;1.17;;
62687;SDS011;48752;51.056;17.056;2022-09-09T10:19:04;7.83;;;2.73;;
62687;SDS011;48752;51.056;17.056;2022-09-09T10:24:22;14.63;;;2.38;;
62687;SDS011;48752;51.056;17.056;2022-09-09T10:35:45;1.85;;;1.27;;
62687;SDS011;48752;51.056;17.056;2022-09-09T10:44:01;7.22;;;1.63;;
62687;SDS011;48752;51.056;17.056;2022-09-09T10:55:37;4.57;;;1.80;;
62687;SDS011;48752;51.056;17.056;2022-09-09T10:58:05;28.15;;;5.45;;
62687;SDS011;48752;51.056;17.056;2022-09-09T11:00:39;88.50;;;13.35;;
62687;SDS011;48752;51.056;17.056;2022-09-09T11:03:17;3.67;;;1.20;;
62687;SDS011;48752;51.056;17.056;2022-09-09T11:05:46;2.50;;;1.20;;
62687;SDS011;48752;51.056;17.056;2022-09-09T11:08:26;18.17;;;3.30;;
62687;SDS011;48752;51.056;17.056;2022-09-09T11:10:58;131.43;;;22.35;;
62687;SDS011;48752;51.056;17.056;2022-09-09T11:19:12;1.65;;;1.13;;
62687;SDS011;48752;51.056;17.056;2022-09-09T11:21:46;75.97;;;12.40;;
62687;SDS011;48752;51.056;17.056;2022-09-09T11:24:26;10.88;;;2.42;;
62687;SDS011;48752;51.056;17.056;2022-09-09T11:30:02;23.50;;;3.58;;
62687;SDS011;48752;51.056;17.056;2022-09-09T11:32:34;55.13;;;7.53;;
62687;SDS011;48752;51.056;17.056;2022-09-09T11:42:41;2.65;;;1.20;;
62687;SDS011;48752;51.056;17.056;2022-09-09T11:45:20;2.30;;;1.05;;
62687;SDS011;48752;51.056;17.056;2022-09-09T11:47:53;4.00;;;1.10;;
62687;SDS011;48752;51.056;17.056;2022-09-09T11:52:45;3.10;;;1.42;;
62687;SDS011;48752;51.056;17.056;2022-09-09T11:55:32;3.88;;;1.35;;
62687;SDS011;48752;51.056;17.056;2022-09-09T12:00:38;3.50;;;1.30;;
62687;SDS011;48752;51.056;17.056;2022-09-09T12:06:12;3.67;;;1.10;;
62687;SDS011;48752;51.056;17.056;2022-09-09T12:08:44;12.63;;;3.10;;
62687;SDS011;48752;51.056;17.056;2022-09-09T12:11:11;5.03;;;1.10;;
62687;SDS011;48752;51.056;17.056;2022-09-09T12:13:37;4.38;;;1.20;;
62687;SDS011;48752;51.056;17.056;2022-09-09T12:16:02;6.63;;;1.52;;
62687;SDS011;48752;51.056;17.056;2022-09-09T12:23:51;21.23;;;2.95;;
62687;SDS011;48752;51.056;17.056;2022-09-09T12:33:55;1.08;;;0.80;;
62687;SDS011;48752;51.056;17.056;2022-09-09T12:36:41;1.55;;;1.20;;
62687;SDS011;48752;51.056;17.056;2022-09-09T12:42:17;2.97;;;1.30;;
62687;SDS011;48752;51.056;17.056;2022-09-09T12:44:54;4.60;;;1.50;;
62687;SDS011;48752;51.056;17.056;2022-09-09T12:47:26;1.38;;;1.00;;
62687;SDS011;48752;51.056;17.056;2022-09-09T12:49:55;8.52;;;1.40;;
62687;SDS011;48752;51.056;17.056;2022-09-09T12:52:29;2.80;;;1.33;;
62687;SDS011;48752;51.056;17.056;2022-09-09T12:54:58;2.70;;;1.45;;
62687;SDS011;48752;51.056;17.056;2022-09-09T12:57:25;5.70;;;1.65;;
62687;SDS011;48752;51.056;17.056;2022-09-09T12:59:51;3.78;;;1.27;;
62687;SDS011;48752;51.056;17.056;2022-09-09T13:02:20;4.32;;;1.83;;
62687;SDS011;48752;51.056;17.056;2022-09-09T13:04:51;2.78;;;1.40;;
62687;SDS011;48752;51.056;17.056;2022-09-09T13:07:18;4.30;;;1.27;;
62687;SDS011;48752;51.056;17.056;2022-09-09T13:09:45;1.98;;;1.42;;
62687;SDS011;48752;51.056;17.056;2022-09-09T13:12:29;2.50;;;1.15;;
62687;SDS011;48752;51.056;17.056;2022-09-09T13:14:55;3.80;;;1.33;;
62687;SDS011;48752;51.056;17.056;2022-09-09T13:19:50;3.15;;;1.63;;
62687;SDS011;48752;51.056;17.056;2022-09-09T13:25:51;3.30;;;1.20;;
62687;SDS011;48752;51.056;17.056;2022-09-09T13:27:52;9.35;;;1.65;;
62687;SDS011;48752;51.056;17.056;2022-09-09T13:30:28;3.58;;;1.35;;
62687;SDS011;48752;51.056;17.056;2022-09-09T13:38:38;3.92;;;1.55;;
62687;SDS011;48752;51.056;17.056;2022-09-09T13:41:35;4.50;;;1.40;;
62687;SDS011;48752;51.056;17.056;2022-09-09T13:44:02;4.53;;;1.30;;
62687;SDS011;48752;51.056;17.056;2022-09-09T13:46:36;13.02;;;2.47;;
62687;SDS011;48752;51.056;17.056;2022-09-09T13:51:37;1.42;;;0.95;;
62687;SDS011;48752;51.056;17.056;2022-09-09T13:54:09;4.27;;;1.17;;
62687;SDS011;48752;51.056;17.056;2022-09-09T13:56:36;1.15;;;1.05;;
62687;SDS011;48752;51.056;17.056;2022-09-09T13:59:03;5.25;;;1.25;;
62687;SDS011;48752;51.056;17.056;2022-09-09T14:01:30;1.58;;;1.33;;
62687;SDS011;48752;51.056;17.056;2022-09-09T14:03:56;4.45;;;1.48;;
62687;SDS011;48752;51.056;17.056;2022-09-09T14:06:22;24.55;;;5.07;;
62687;SDS011;48752;51.056;17.056;2022-09-09T14:08:48;15.13;;;2.50;;
62687;SDS011;48752;51.056;17.056;2022-09-09T14:11:15;2.17;;;1.00;;
62687;SDS011;48752;51.056;17.056;2022-09-09T14:13:40;11.00;;;1.55;;
62687;SDS011;48752;51.056;17.056;2022-09-09T14:16:06;2.25;;;1.13;;
62687;SDS011;48752;51.056;17.056;2022-09-09T14:18:31;7.10;;;1.50;;
62687;SDS011;48752;51.056;17.056;2022-09-09T14:20:56;2.50;;;1.50;;
62687;SDS011;48752;51.056;17.056;2022-09-09T14:23:23;4.57;;;1.40;;
62687;SDS011;48752;51.056;17.056;2022-09-09T14:25:49;2.80;;;1.58;;
62687;SDS011;48752;51.056;17.056;2022-09-09T14:28:15;2.80;;;1.60;;
62687;SDS011;48752;51.056;17.056;2022-09-09T14:30:41;3.20;;;1.80;;
62687;SDS011;48752;51.056;17.056;2022-09-09T14:33:08;2.80;;;1.33;;
62687;SDS011;48752;51.056;17.056;2022-09-09T14:35:35;7.55;;;1.70;;
62687;SDS011;48752;51.056;17.056;2022-09-09T14:38:01;1.35;;;1.00;;
62687;SDS011;48752;51.056;17.056;2022-09-09T14:40:28;1.90;;;1.13;;
62687;SDS011;48752;51.056;17.056;2022-09-09T14:42:54;5.03;;;2.13;;
62687;SDS011;48752;51.056;17.056;2022-09-09T14:45:20;4.20;;;1.70;;
62687;SDS011;48752;51.056;17.056;2022-09-09T14:47:46;4.13;;;1.45;;
62687;SDS011;48752;51.056;17.056;2022-09-09T14:50:11;4.68;;;1.75;;
62687;SDS011;48752;51.056;17.056;2022-09-09T14:52:37;5.00;;;1.70;;
62687;SDS011;48752;51.056;17.056;2022-09-09T14:55:02;5.88;;;1.92;;
62687;SDS011;48752;51.056;17.056;2022-09-09T14:57:28;2.90;;;1.45;;
62687;SDS011;48752;51.056;17.056;2022-09-09T14:59:54;1.85;;;1.02;;
62687;SDS011;48752;51.056;17.056;2022-09-09T15:02:19;3.25;;;1.50;;
62687;SDS011;48752;51.056;17.056;2022-09-09T15:04:44;7.20;;;1.42;;
62687;SDS011;48752;51.056;17.056;2022-09-09T15:07:10;3.15;;;1.30;;
62687;SDS011;48752;51.056;17.056;2022-09-09T15:09:36;2.63;;;1.58;;
62687;SDS011;48752;51.056;17.056;2022-09-09T15:12:02;1.75;;;1.00;;
62687;SDS011;48752;51.056;17.056;2022-09-09T15:14:27;4.70;;;1.77;;
62687;SDS011;48752;51.056;17.056;2022-09-09T15:16:54;4.75;;;1.50;;
62687;SDS011;48752;51.056;17.056;2022-09-09T15:19:19;6.70;;;1.45;;
62687;SDS011;48752;51.056;17.056;2022-09-09T15:21:44;3.28;;;1.30;;
62687;SDS011;48752;51.056;17.056;2022-09-09T15:24:10;11.75;;;1.88;;
62687;SDS011;48752;51.056;17.056;2022-09-09T15:26:35;2.45;;;1.52;;
62687;SDS011;48752;51.056;17.056;2022-09-09T15:29:03;3.90;;;1.30;;
62687;SDS011;48752;51.056;17.056;2022-09-09T15:31:29;5.93;;;2.05;;
62687;SDS011;48752;51.056;17.056;2022-09-09T15:33:56;3.70;;;1.42;;
62687;SDS011;48752;51.056;17.056;2022-09-09T15:36:26;23.45;;;4.28;;
62687;SDS011;48752;51.056;17.056;2022-09-09T15:38:57;5.35;;;1.95;;
62687;SDS011;48752;51.056;17.056;2022-09-09T15:41:23;7.38;;;1.88;;
62687;SDS011;48752;51.056;17.056;2022-09-09T15:43:49;3.22;;;1.60;;
62687;SDS011;48752;51.056;17.056;2022-09-09T15:46:22;3.17;;;1.40;;
62687;SDS011;48752;51.056;17.056;2022-09-09T15:48:51;7.00;;;1.70;;
62687;SDS011;48752;51.056;17.056;2022-09-09T15:51:17;4.35;;;1.50;;
62687;SDS011;48752;51.056;17.056;2022-09-09T15:53:43;5.38;;;1.50;;
62687;SDS011;48752;51.056;17.056;2022-09-09T15:56:10;6.18;;;1.80;;
62687;SDS011;48752;51.056;17.056;2022-09-09T15:58:35;4.30;;;1.58;;
62687;SDS011;48752;51.056;17.056;2022-09-09T16:01:04;2.35;;;1.52;;
62687;SDS011;48752;51.056;17.056;2022-09-09T16:03:35;3.00;;;1.75;;
62687;SDS011;48752;51.056;17.056;2022-09-09T16:06:02;2.55;;;1.77;;
62687;SDS011;48752;51.056;17.056;2022-09-09T16:08:32;2.90;;;1.50;;
62687;SDS011;48752;51.056;17.056;2022-09-09T16:11:05;2.63;;;1.63;;
62687;SDS011;48752;51.056;17.056;2022-09-09T16:13:38;3.17;;;1.40;;
62687;SDS011;48752;51.056;17.056;2022-09-09T16:16:04;3.90;;;1.42;;
62687;SDS011;48752;51.056;17.056;2022-09-09T16:18:34;2.03;;;1.35;;
62687;SDS011;48752;51.056;17.056;2022-09-09T16:21:04;4.50;;;1.70;;
62687;SDS011;48752;51.056;17.056;2022-09-09T16:23:34;6.30;;;1.48;;
62687;SDS011;48752;51.056;17.056;2022-09-09T16:26:00;3.45;;;1.70;;
62687;SDS011;48752;51.056;17.056;2022-09-09T16:28:26;4.10;;;1.30;;
62687;SDS011;48752;51.056;17.056;2022-09-09T16:30:52;3.17;;;1.20;;
62687;SDS011;48752;51.056;17.056;2022-09-09T16:33:18;1.48;;;1.10;;
62687;SDS011;48752;51.056;17.056;2022-09-09T16:35:43;3.17;;;1.33;;
62687;SDS011;48752;51.056;17.056;2022-09-09T16:38:09;2.58;;;1.30;;
62687;SDS011;48752;51.056;17.056;2022-09-09T16:40:35;3.70;;;1.67;;
62687;SDS011;48752;51.056;17.056;2022-09-09T16:43:06;3.15;;;1.55;;
62687;SDS011;48752;51.056;17.056;2022-09-09T16:45:32;4.22;;;1.75;;
62687;SDS011;48752;51.056;17.056;2022-09-09T16:47:57;7.05;;;1.65;;
62687;SDS011;48752;51.056;17.056;2022-09-09T16:50:24;1.65;;;1.52;;
62687;SDS011;48752;51.056;17.056;2022-09-09T16:52:50;6.32;;;1.70;;
62687;SDS011;48752;51.056;17.056;2022-09-09T16:55:16;2.17;;;1.38;;
62687;SDS011;48752;51.056;17.056;2022-09-09T16:57:42;4.88;;;1.30;;
62687;SDS011;48752;51.056;17.056;2022-09-09T17:00:07;3.97;;;1.50;;
62687;SDS011;48752;51.056;17.056;2022-09-09T17:02:33;6.18;;;1.77;;
62687;SDS011;48752;51.056;17.056;2022-09-09T17:04:59;1.95;;;1.45;;
62687;SDS011;48752;51.056;17.056;2022-09-09T17:07:24;2.20;;;1.52;;
62687;SDS011;48752;51.056;17.056;2022-09-09T17:09:50;7.53;;;1.73;;
62687;SDS011;48752;51.056;17.056;2022-09-09T17:12:16;4.43;;;1.52;;
62687;SDS011;48752;51.056;17.056;2022-09-09T17:14:41;2.28;;;1.40;;
62687;SDS011;48752;51.056;17.056;2022-09-09T17:17:07;3.03;;;1.70;;
62687;SDS011;48752;51.056;17.056;2022-09-09T17:19:32;1.92;;;1.40;;